Time;durP1;ratioP1;P1;durP2;ratioP2;P2;SDS_P1;SDS_P2;PMS_P1;PMS_P2;Temp;Humidity;BMP_temperature;BMP_pressure;BME280_temperature;BME280_humidity;BME280_pressure;Samples;Min_cycle;Max_cycle;Signal;HPM_P1;HPM_P2
2023/12/11 00:02:15;;;;;;;22.37;3.67;;;10.20;99.90;;;;;;5074494;28;20282;-78
2023/12/11 00:04:40;;;;;;;17.43;3.60;;;10.10;99.90;;;;;;5075737;28;20231;-77
2023/12/11 00:07:06;;;;;;;21.93;3.83;;;10.10;99.90;;;;;;5074515;28;20564;-78
2023/12/11 00:09:31;;;;;;;24.87;4.27;;;10.10;99.90;;;;;;5074449;28;20527;-78
2023/12/11 00:11:57;;;;;;;23.17;4.90;;;10.10;99.90;;;;;;5075985;28;20305;-78
2023/12/11 00:14:22;;;;;;;20.47;4.13;;;10.00;99.90;;;;;;5075690;28;20205;-78
2023/12/11 00:16:48;;;;;;;26.80;3.77;;;10.00;99.90;;;;;;5075560;28;20632;-78
2023/12/11 00:19:14;;;;;;;22.37;4.07;;;10.00;99.90;;;;;;5075444;28;20171;-77
2023/12/11 00:21:40;;;;;;;20.97;4.07;;;10.10;99.90;;;;;;5073843;28;20179;-78
2023/12/11 00:24:06;;;;;;;22.93;4.17;;;10.00;99.90;;;;;;5074935;28;20170;-78
2023/12/11 00:26:32;;;;;;;24.83;4.23;;;10.00;99.90;;;;;;5073858;28;20187;-77
2023/12/11 00:28:57;;;;;;;20.67;3.80;;;10.00;99.90;;;;;;5074215;28;20186;-77
2023/12/11 00:31:23;;;;;;;20.27;4.60;;;10.00;99.90;;;;;;5074015;28;20190;-77
2023/12/11 00:33:48;;;;;;;23.83;4.40;;;9.90;99.90;;;;;;5074361;28;20277;-77
2023/12/11 00:36:14;;;;;;;25.53;4.77;;;9.90;99.90;;;;;;5074340;28;20187;-78
2023/12/11 00:38:39;;;;;;;23.13;4.60;;;10.10;99.90;;;;;;5074785;28;20167;-77
2023/12/11 00:41:07;;;;;;;26.80;4.50;;;9.90;99.90;;;;;;5074627;28;20226;-78
2023/12/11 00:43:33;;;;;;;21.23;4.37;;;9.80;99.90;;;;;;5075247;28;20193;-78
2023/12/11 00:45:59;;;;;;;23.33;4.67;;;10.00;99.90;;;;;;5073796;28;20171;-78
2023/12/11 00:48:24;;;;;;;25.53;4.47;;;9.80;99.90;;;;;;5075249;28;20311;-78
2023/12/11 00:50:50;;;;;;;32.97;5.47;;;9.90;99.90;;;;;;5075545;28;20171;-78
2023/12/11 00:53:15;;;;;;;28.13;4.77;;;9.80;99.90;;;;;;5074771;28;20175;-78
2023/12/11 00:55:41;;;;;;;24.13;4.93;;;9.90;99.90;;;;;;5073574;28;20174;-78
2023/12/11 00:58:06;;;;;;;22.07;4.47;;;9.90;99.90;;;;;;5074880;28;20191;-78
2023/12/11 01:00:32;;;;;;;28.50;4.23;;;9.90;99.90;;;;;;5074482;28;20288;-78
2023/12/11 01:02:58;;;;;;;26.10;5.70;;;9.90;99.90;;;;;;5073164;28;20200;-78
2023/12/11 01:05:23;;;;;;;29.30;5.30;;;9.90;99.90;;;;;;5073484;28;20171;-77
2023/12/11 01:07:49;;;;;;;29.70;5.40;;;9.90;99.90;;;;;;5072960;28;20194;-78
2023/12/11 01:10:15;;;;;;;24.43;4.63;;;9.90;99.90;;;;;;5074571;28;20170;-78
2023/12/11 01:12:42;;;;;;;30.77;5.83;;;9.90;99.90;;;;;;5073107;28;20192;-78
2023/12/11 01:15:08;;;;;;;30.63;4.97;;;9.90;99.90;;;;;;5074433;28;20194;-78
2023/12/11 01:17:33;;;;;;;30.07;5.47;;;9.90;99.90;;;;;;5074437;28;20190;-78
2023/12/11 01:19:59;;;;;;;27.37;5.40;;;9.90;99.90;;;;;;5074205;28;20246;-78
2023/12/11 01:22:24;;;;;;;26.67;5.23;;;9.90;99.90;;;;;;5074376;28;20185;-78
2023/12/11 01:24:50;;;;;;;23.10;5.00;;;9.90;99.90;;;;;;5075029;28;20173;-78
2023/12/11 01:27:16;;;;;;;23.93;3.70;;;9.90;99.90;;;;;;5073713;28;20225;-78
2023/12/11 01:29:41;;;;;;;26.57;4.63;;;9.90;99.90;;;;;;5072858;28;20217;-77
2023/12/11 01:32:07;;;;;;;27.60;4.93;;;9.90;99.90;;;;;;5073934;28;20193;-76
2023/12/11 01:34:32;;;;;;;28.37;5.10;;;9.80;99.90;;;;;;5074275;28;20202;-77
2023/12/11 01:36:59;;;;;;;28.33;4.90;;;9.90;99.90;;;;;;5072617;28;20190;-77
2023/12/11 01:39:24;;;;;;;21.33;4.60;;;9.90;99.90;;;;;;5072644;28;20174;-76
2023/12/11 01:41:50;;;;;;;22.40;4.83;;;9.90;99.90;;;;;;5072062;28;20247;-78
2023/12/11 01:44:15;;;;;;;23.13;4.40;;;9.90;99.90;;;;;;5072181;28;20679;-77
2023/12/11 01:46:41;;;;;;;34.33;5.40;;;9.90;99.90;;;;;;5072206;28;20206;-78
2023/12/11 01:49:07;;;;;;;22.07;4.53;;;9.80;99.90;;;;;;5072484;28;20259;-78
2023/12/11 01:51:33;;;;;;;25.50;5.10;;;10.00;99.90;;;;;;5072155;28;20174;-78
2023/12/11 01:53:58;;;;;;;30.87;4.90;;;9.90;99.90;;;;;;5073495;28;20194;-76
2023/12/11 01:56:25;;;;;;;19.53;4.67;;;9.90;99.90;;;;;;5072057;28;20190;-78
2023/12/11 01:58:50;;;;;;;27.77;4.40;;;10.00;99.90;;;;;;5073286;28;20246;-78
2023/12/11 02:01:18;;;;;;;31.50;5.20;;;10.10;99.90;;;;;;5072406;28;20202;-78
2023/12/11 02:03:44;;;;;;;27.43;4.57;;;10.10;99.90;;;;;;5072308;28;20209;-76
2023/12/11 02:06:10;;;;;;;27.17;4.90;;;10.10;99.90;;;;;;5072256;28;20250;-77
2023/12/11 02:08:36;;;;;;;36.50;6.50;;;10.10;99.90;;;;;;5072362;28;20232;-77
2023/12/11 02:11:03;;;;;;;28.00;5.20;;;10.10;99.90;;;;;;5071067;28;20182;-77
2023/12/11 02:13:28;;;;;;;25.17;4.47;;;10.10;99.90;;;;;;5071451;28;20185;-78
2023/12/11 02:15:54;;;;;;;26.50;4.87;;;10.10;99.90;;;;;;5073113;28;20577;-77
2023/12/11 02:18:21;;;;;;;28.40;4.30;;;10.10;99.90;;;;;;5073423;28;20592;-77
2023/12/11 02:20:47;;;;;;;30.10;5.40;;;10.10;99.90;;;;;;5077071;28;20163;-78
2023/12/11 02:23:41;;;;;;;28.60;5.27;;;10.00;99.90;;;;;;5076098;28;20174;-78
2023/12/11 02:26:14;;;;;;;30.00;5.60;;;10.00;99.90;;;;;;5092536;28;20167;-78
2023/12/11 02:28:40;;;;;;;34.43;4.90;;;10.20;99.90;;;;;;5076880;28;20231;-78
2023/12/11 02:31:06;;;;;;;25.63;5.07;;;10.30;99.90;;;;;;5075591;28;20190;-78
2023/12/11 02:33:31;;;;;;;23.03;4.13;;;10.20;99.90;;;;;;5077100;28;20167;-78
2023/12/11 02:35:57;;;;;;;27.63;5.00;;;10.10;99.90;;;;;;5075482;28;20197;-76
2023/12/11 02:38:23;;;;;;;25.60;4.40;;;10.10;99.90;;;;;;5076006;28;20178;-78
2023/12/11 02:40:48;;;;;;;25.97;4.17;;;10.10;99.90;;;;;;5077304;28;20688;-78
2023/12/11 02:43:14;;;;;;;31.17;5.53;;;10.10;99.90;;;;;;5088434;28;20181;-78
2023/12/11 02:45:41;;;;;;;28.37;5.00;;;10.00;99.90;;;;;;5079405;28;20694;-78
2023/12/11 02:48:06;;;;;;;23.50;3.97;;;10.00;99.90;;;;;;5076304;28;20202;-78
2023/12/11 02:50:32;;;;;;;35.30;5.17;;;10.10;99.90;;;;;;5076329;28;20274;-78
2023/12/11 02:52:58;;;;;;;24.47;4.60;;;10.10;99.90;;;;;;5076066;28;20218;-78
2023/12/11 02:55:24;;;;;;;30.43;4.47;;;10.10;99.90;;;;;;5076138;28;20213;-78
2023/12/11 02:57:50;;;;;;;24.03;4.30;;;10.00;99.90;;;;;;5077258;28;20626;-78
2023/12/11 03:00:15;;;;;;;25.17;4.53;;;10.00;99.90;;;;;;5076140;28;20325;-77
2023/12/11 03:02:41;;;;;;;28.40;5.50;;;10.00;99.90;;;;;;5076578;28;20651;-77
2023/12/11 03:05:07;;;;;;;32.57;4.83;;;10.00;99.90;;;;;;5076974;28;20503;-78
2023/12/11 03:07:32;;;;;;;29.77;5.10;;;10.00;99.90;;;;;;5076604;28;20582;-77
2023/12/11 03:09:58;;;;;;;26.17;6.13;;;10.10;99.90;;;;;;5077193;28;20183;-78
2023/12/11 03:12:24;;;;;;;29.87;4.63;;;10.00;99.90;;;;;;5076824;28;20182;-78
2023/12/11 03:14:49;;;;;;;27.87;4.80;;;10.00;99.90;;;;;;5076762;28;20201;-78
2023/12/11 03:17:15;;;;;;;25.57;4.43;;;10.00;99.90;;;;;;5076367;28;20283;-78
2023/12/11 03:19:40;;;;;;;21.80;3.93;;;10.10;99.90;;;;;;5075001;28;20184;-78
2023/12/11 03:22:06;;;;;;;27.53;5.07;;;10.10;99.90;;;;;;5076403;28;20177;-78
2023/12/11 03:24:32;;;;;;;21.67;3.67;;;10.10;99.90;;;;;;5074708;28;20559;-77
2023/12/11 03:26:57;;;;;;;27.10;5.03;;;10.10;99.90;;;;;;5075951;28;20244;-77
2023/12/11 03:29:23;;;;;;;24.83;4.43;;;10.10;99.90;;;;;;5076225;28;20179;-78
2023/12/11 03:31:48;;;;;;;24.23;4.93;;;10.10;99.90;;;;;;5075142;28;20219;-78
2023/12/11 03:34:14;;;;;;;29.07;4.70;;;10.00;99.90;;;;;;5074936;28;20234;-78
2023/12/11 03:36:39;;;;;;;26.83;5.47;;;10.10;99.90;;;;;;5075979;28;20190;-78
2023/12/11 03:39:07;;;;;;;34.23;5.73;;;10.00;99.90;;;;;;5076875;28;20635;-78
2023/12/11 03:41:33;;;;;;;35.30;5.13;;;10.10;99.90;;;;;;5076497;28;20164;-79
2023/12/11 03:43:58;;;;;;;24.53;4.30;;;9.90;99.90;;;;;;5075937;28;20182;-77
2023/12/11 03:46:24;;;;;;;22.90;4.63;;;9.90;99.90;;;;;;5074895;28;20657;-76
2023/12/11 03:48:49;;;;;;;28.07;4.47;;;9.90;99.90;;;;;;5073286;28;20213;-77
2023/12/11 03:51:15;;;;;;;28.73;5.00;;;9.90;99.90;;;;;;5073458;28;20178;-77
2023/12/11 03:53:40;;;;;;;22.10;4.47;;;9.90;99.90;;;;;;5074652;28;20170;-78
2023/12/11 03:56:06;;;;;;;23.70;5.30;;;10.00;99.90;;;;;;5073714;28;20182;-78
2023/12/11 03:58:32;;;;;;;26.03;4.97;;;10.00;99.90;;;;;;5079434;28;20258;-78
2023/12/11 04:00:57;;;;;;;28.30;4.90;;;10.00;99.90;;;;;;5080187;28;20179;-77
2023/12/11 04:03:23;;;;;;;26.80;4.53;;;9.90;99.90;;;;;;5081239;28;20190;-77
2023/12/11 04:05:48;;;;;;;19.63;3.90;;;10.00;99.90;;;;;;5077366;28;20178;-78
2023/12/11 04:08:14;;;;;;;21.47;4.20;;;10.00;99.90;;;;;;5075493;28;20186;-77
2023/12/11 04:10:39;;;;;;;30.93;4.87;;;10.00;99.90;;;;;;5075661;28;20197;-77
2023/12/11 04:13:05;;;;;;;26.33;5.20;;;9.80;99.90;;;;;;5075648;28;20194;-78
2023/12/11 04:15:31;;;;;;;20.13;4.40;;;10.10;99.90;;;;;;5075664;28;20553;-78
2023/12/11 04:17:56;;;;;;;27.53;4.33;;;10.20;99.90;;;;;;5074547;28;20191;-79
2023/12/11 04:20:22;;;;;;;21.10;3.97;;;10.20;99.90;;;;;;5075643;28;20163;-78
2023/12/11 04:22:47;;;;;;;17.83;4.00;;;10.10;99.90;;;;;;5074140;28;20186;-78
2023/12/11 04:25:13;;;;;;;17.37;3.30;;;10.10;99.90;;;;;;5075581;28;20178;-78
2023/12/11 04:27:38;;;;;;;20.93;3.63;;;10.10;99.90;;;;;;5075429;28;20282;-79
2023/12/11 04:30:04;;;;;;;19.60;4.10;;;10.10;99.90;;;;;;5073559;28;20202;-78
2023/12/11 04:32:30;;;;;;;21.77;3.47;;;10.20;99.90;;;;;;5074777;28;20248;-77
2023/12/11 04:34:56;;;;;;;17.53;3.43;;;10.20;99.90;;;;;;5074806;28;20203;-77
2023/12/11 04:37:21;;;;;;;17.07;3.53;;;10.10;99.90;;;;;;5073834;28;20197;-78
2023/12/11 04:39:47;;;;;;;26.37;4.33;;;10.00;99.90;;;;;;5075160;28;20194;-78
2023/12/11 04:42:12;;;;;;;22.70;3.90;;;10.00;99.90;;;;;;5073833;28;20547;-76
2023/12/11 04:44:38;;;;;;;18.87;3.83;;;9.90;99.90;;;;;;5074842;28;20715;-78
2023/12/11 04:47:04;;;;;;;24.57;4.47;;;9.90;99.90;;;;;;5075282;28;20194;-78
2023/12/11 04:49:29;;;;;;;25.57;4.60;;;9.90;99.90;;;;;;5075895;28;20213;-78
2023/12/11 04:51:55;;;;;;;22.90;4.37;;;9.90;99.90;;;;;;5074232;28;20174;-78
2023/12/11 04:54:20;;;;;;;24.40;4.17;;;9.90;99.90;;;;;;5073561;28;20619;-78
2023/12/11 04:56:46;;;;;;;19.07;3.97;;;9.80;99.90;;;;;;5073041;28;20285;-78
2023/12/11 04:59:11;;;;;;;15.13;3.17;;;9.90;99.90;;;;;;5074941;28;20175;-78
2023/12/11 05:01:37;;;;;;;17.60;3.60;;;9.90;99.90;;;;;;5074463;28;20195;-77
2023/12/11 05:04:03;;;;;;;15.70;3.43;;;9.90;99.90;;;;;;5071816;28;20202;-78
2023/12/11 05:06:28;;;;;;;12.37;2.77;;;10.00;99.90;;;;;;5073297;28;20191;-78
2023/12/11 05:08:54;;;;;;;16.10;2.93;;;10.00;99.90;;;;;;5071980;28;20171;-78
2023/12/11 05:11:19;;;;;;;15.70;3.50;;;9.80;99.90;;;;;;5072335;28;20178;-78
2023/12/11 05:13:45;;;;;;;12.70;2.67;;;9.90;99.90;;;;;;5072510;28;20228;-78
2023/12/11 05:16:11;;;;;;;16.83;2.90;;;9.90;99.90;;;;;;5073779;28;20178;-77
2023/12/11 05:18:38;;;;;;;15.00;2.80;;;9.80;99.90;;;;;;5072456;28;20614;-78
2023/12/11 05:21:08;;;;;;;14.07;3.17;;;9.80;99.90;;;;;;5073655;28;20167;-78
2023/12/11 05:23:34;;;;;;;13.83;2.80;;;9.80;99.90;;;;;;5073372;28;20180;-77
2023/12/11 05:25:59;;;;;;;18.63;3.43;;;9.80;99.90;;;;;;5073549;28;20201;-78
2023/12/11 05:28:25;;;;;;;20.57;3.60;;;9.90;99.90;;;;;;5074298;28;20179;-78
2023/12/11 05:30:50;;;;;;;18.73;3.53;;;9.90;99.90;;;;;;5072693;28;20187;-78
2023/12/11 05:33:16;;;;;;;24.90;3.73;;;9.90;99.90;;;;;;5072542;28;20170;-78
2023/12/11 05:35:42;;;;;;;21.13;3.73;;;9.80;99.90;;;;;;5072150;28;20254;-77
2023/12/11 05:38:07;;;;;;;19.30;3.67;;;9.80;99.90;;;;;;5073665;28;20299;-78
2023/12/11 05:40:33;;;;;;;18.30;3.30;;;9.70;99.90;;;;;;5072418;28;20171;-78
2023/12/11 05:42:58;;;;;;;23.97;3.90;;;9.70;99.90;;;;;;5072455;28;20182;-78
2023/12/11 05:45:24;;;;;;;23.87;3.80;;;9.60;99.90;;;;;;5072199;28;20524;-77
2023/12/11 05:47:49;;;;;;;18.43;3.60;;;9.50;99.90;;;;;;5072318;28;20285;-78
2023/12/11 05:50:15;;;;;;;16.10;3.40;;;9.50;99.90;;;;;;5073821;28;20179;-79
2023/12/11 05:52:41;;;;;;;16.13;3.43;;;9.50;99.90;;;;;;5072699;28;20265;-79
2023/12/11 05:55:06;;;;;;;21.23;4.13;;;9.40;99.90;;;;;;5073092;28;20205;-78
2023/12/11 05:57:32;;;;;;;27.13;3.70;;;9.50;99.90;;;;;;5080373;28;20274;-78
2023/12/11 05:59:57;;;;;;;19.30;3.67;;;9.50;99.90;;;;;;5072843;28;20638;-77
2023/12/11 06:02:24;;;;;;;24.30;4.77;;;9.50;99.90;;;;;;5074532;28;20167;-78
2023/12/11 06:04:50;;;;;;;20.30;4.47;;;9.50;99.90;;;;;;5074608;28;20254;-78
2023/12/11 06:07:16;;;;;;;21.40;3.93;;;9.50;99.90;;;;;;5072356;28;20275;-78
2023/12/11 06:09:42;;;;;;;22.00;4.77;;;9.60;99.90;;;;;;5073950;28;20226;-77
2023/12/11 06:12:09;;;;;;;22.63;4.10;;;9.70;99.90;;;;;;5073350;28;20173;-78
2023/12/11 06:14:38;;;;;;;20.07;3.33;;;9.70;99.90;;;;;;5073332;28;20194;-78
2023/12/11 06:17:04;;;;;;;11.77;2.63;;;9.70;99.90;;;;;;5073656;28;20198;-78
2023/12/11 06:19:29;;;;;;;12.97;2.73;;;9.80;99.90;;;;;;5073206;28;20639;-77
2023/12/11 06:21:55;;;;;;;15.73;3.70;;;9.80;99.90;;;;;;5072657;28;20175;-77
2023/12/11 06:24:20;;;;;;;19.83;3.40;;;9.90;99.90;;;;;;5072704;28;20174;-75
2023/12/11 06:26:46;;;;;;;18.60;3.47;;;9.80;99.90;;;;;;5072662;28;20230;-78
2023/12/11 06:29:11;;;;;;;16.47;3.13;;;9.90;99.90;;;;;;5072819;28;20175;-77
2023/12/11 06:31:37;;;;;;;20.47;3.27;;;9.90;99.90;;;;;;5071118;28;20195;-77
2023/12/11 06:34:03;;;;;;;18.33;4.40;;;9.90;99.90;;;;;;5071222;28;20238;-76
2023/12/11 06:36:28;;;;;;;17.17;3.80;;;10.00;99.90;;;;;;5071221;28;20187;-78
2023/12/11 06:38:54;;;;;;;24.07;3.87;;;10.00;99.90;;;;;;5071538;28;20259;-77
2023/12/11 06:41:20;;;;;;;15.90;3.30;;;10.00;99.90;;;;;;5071993;28;20313;-77
2023/12/11 06:43:52;;;;;;;18.83;3.67;;;10.00;99.90;;;;;;5071077;28;20179;-77
2023/12/11 06:46:19;;;;;;;21.53;3.90;;;10.10;99.90;;;;;;5071680;28;20240;-76
2023/12/11 06:48:44;;;;;;;20.03;3.83;;;10.10;99.90;;;;;;5070400;28;20266;-77
2023/12/11 06:51:10;;;;;;;18.13;3.37;;;10.10;99.90;;;;;;5071962;28;20647;-77
2023/12/11 06:53:36;;;;;;;17.50;3.70;;;10.00;99.90;;;;;;5071883;28;20257;-76
2023/12/11 06:56:01;;;;;;;21.50;3.43;;;10.10;99.90;;;;;;5070408;28;20168;-76
2023/12/11 06:58:27;;;;;;;15.13;3.10;;;10.10;99.90;;;;;;5070740;28;20221;-77
2023/12/11 07:00:52;;;;;;;22.40;3.87;;;10.00;99.90;;;;;;5072063;28;20171;-77
2023/12/11 07:03:18;;;;;;;17.97;4.07;;;10.00;99.90;;;;;;5071919;28;20186;-77
2023/12/11 07:05:44;;;;;;;19.40;3.50;;;10.10;99.90;;;;;;5073197;28;20182;-77
2023/12/11 07:08:10;;;;;;;18.30;3.60;;;10.00;99.90;;;;;;5074909;28;20233;-77
2023/12/11 07:10:36;;;;;;;20.23;3.70;;;10.00;99.90;;;;;;5076311;28;20175;-78
2023/12/11 07:16:45;;;;;;;20.00;3.63;;;10.00;99.90;;;;;;5075590;28;20277;-76
2023/12/11 07:19:11;;;;;;;24.47;3.93;;;10.00;99.90;;;;;;5075023;28;20649;-78
2023/12/11 07:21:36;;;;;;;19.43;3.63;;;10.00;99.90;;;;;;5074468;28;20197;-78
2023/12/11 07:24:02;;;;;;;17.47;3.47;;;10.10;99.90;;;;;;5076420;28;20171;-78
2023/12/11 07:26:28;;;;;;;15.43;3.67;;;10.00;99.90;;;;;;5076192;28;20187;-78
2023/12/11 07:28:54;;;;;;;23.17;3.90;;;10.10;99.90;;;;;;5076396;28;20174;-77
2023/12/11 07:31:20;;;;;;;17.70;3.57;;;10.00;99.90;;;;;;5074618;28;20187;-78
2023/12/11 07:33:45;;;;;;;16.03;3.03;;;10.00;99.90;;;;;;5076284;28;20665;-77
2023/12/11 07:36:11;;;;;;;16.63;3.53;;;10.10;99.90;;;;;;5075498;28;20167;-78
2023/12/11 07:38:37;;;;;;;21.83;3.63;;;10.20;99.90;;;;;;5075967;28;20167;-77
2023/12/11 07:41:03;;;;;;;16.23;3.60;;;10.30;99.90;;;;;;5075253;28;20186;-77
2023/12/11 07:43:29;;;;;;;21.87;3.90;;;10.30;99.90;;;;;;5075289;28;20490;-77
2023/12/11 07:45:54;;;;;;;17.77;3.70;;;10.40;99.90;;;;;;5075022;28;20178;-78
2023/12/11 07:48:20;;;;;;;13.87;3.17;;;10.30;99.90;;;;;;5075396;28;20197;-77
2023/12/11 07:50:45;;;;;;;19.17;3.73;;;10.30;99.90;;;;;;5073989;28;20182;-78
2023/12/11 07:53:11;;;;;;;19.33;3.33;;;10.30;99.90;;;;;;5074267;28;20269;-78
2023/12/11 07:55:36;;;;;;;23.50;4.00;;;10.30;99.90;;;;;;5075367;28;20632;-77
2023/12/11 07:58:06;;;;;;;19.00;3.80;;;10.30;99.90;;;;;;5075023;28;20195;-77
2023/12/11 08:00:32;;;;;;;21.57;4.47;;;10.40;99.90;;;;;;5074197;28;20615;-77
2023/12/11 08:02:57;;;;;;;19.70;3.90;;;10.40;99.90;;;;;;5074104;28;20178;-77
2023/12/11 08:05:23;;;;;;;16.17;3.60;;;10.40;99.90;;;;;;5075046;28;20186;-77
2023/12/11 08:07:48;;;;;;;20.87;4.23;;;10.40;99.90;;;;;;5075287;28;20190;-77
2023/12/11 08:10:16;;;;;;;22.60;3.80;;;10.30;99.90;;;;;;5073977;28;20265;-76
2023/12/11 08:12:41;;;;;;;14.37;3.47;;;10.30;99.90;;;;;;5075170;28;20170;-77
2023/12/11 08:15:07;;;;;;;16.27;3.20;;;10.20;99.90;;;;;;5074092;28;20203;-76
2023/12/11 08:17:33;;;;;;;18.60;3.10;;;10.20;99.90;;;;;;5072817;28;20615;-77
2023/12/11 08:19:58;;;;;;;17.10;3.80;;;10.10;99.90;;;;;;5075486;28;20175;-77
2023/12/11 08:22:24;;;;;;;18.20;4.03;;;10.10;99.90;;;;;;5073728;28;20384;-77
2023/12/11 08:24:49;;;;;;;16.93;3.70;;;10.10;99.90;;;;;;5075094;28;20186;-78
2023/12/11 08:27:15;;;;;;;19.30;4.13;;;10.10;99.90;;;;;;5073632;28;20199;-77
2023/12/11 08:29:41;;;;;;;17.40;4.37;;;10.10;99.90;;;;;;5075120;28;20189;-77
2023/12/11 08:32:06;;;;;;;17.87;3.97;;;10.00;99.90;;;;;;5073790;28;20718;-77
2023/12/11 08:34:32;;;;;;;16.20;3.33;;;10.00;99.90;;;;;;5074300;28;20270;-77
2023/12/11 08:36:57;;;;;;;20.30;3.53;;;10.10;99.90;;;;;;5074563;28;20616;-77
2023/12/11 08:39:23;;;;;;;14.00;2.97;;;10.00;99.90;;;;;;5073781;28;20175;-77
2023/12/11 08:41:49;;;;;;;23.93;4.53;;;10.00;99.90;;;;;;5075109;28;20537;-78
2023/12/11 08:44:15;;;;;;;26.07;4.83;;;10.00;99.90;;;;;;5073573;28;20186;-77
2023/12/11 08:46:42;;;;;;;24.53;3.77;;;10.10;99.90;;;;;;5074494;28;20191;-77
2023/12/11 08:49:08;;;;;;;25.20;4.40;;;10.10;99.90;;;;;;5074881;28;20583;-77
2023/12/11 08:51:34;;;;;;;19.60;4.37;;;10.10;99.90;;;;;;5072494;28;20167;-77
2023/12/11 08:53:59;;;;;;;15.53;3.03;;;10.20;99.90;;;;;;5074245;28;20191;-78
2023/12/11 08:56:25;;;;;;;16.97;3.23;;;10.20;99.90;;;;;;5074758;28;20231;-78
2023/12/11 08:58:51;;;;;;;17.27;3.80;;;10.20;99.90;;;;;;5072967;28;20171;-77
2023/12/11 09:01:17;;;;;;;13.83;3.30;;;10.30;99.90;;;;;;5074379;28;20170;-77
2023/12/11 09:03:44;;;;;;;19.73;3.10;;;10.30;99.90;;;;;;5072539;28;20174;-75
2023/12/11 09:06:15;;;;;;;20.43;3.37;;;10.30;99.90;;;;;;5072472;28;20205;-77
2023/12/11 09:08:41;;;;;;;14.97;2.97;;;10.40;99.90;;;;;;5073714;28;20657;-77
2023/12/11 09:11:07;;;;;;;16.00;3.33;;;10.40;99.90;;;;;;5074014;28;20171;-77
2023/12/11 09:13:32;;;;;;;17.87;3.43;;;10.40;99.90;;;;;;5074282;28;20175;-76
2023/12/11 09:15:58;;;;;;;16.73;3.20;;;10.40;99.90;;;;;;5073530;28;20252;-77
2023/12/11 09:18:23;;;;;;;18.50;3.63;;;10.40;99.90;;;;;;5073509;28;20240;-76
2023/12/11 09:20:49;;;;;;;12.47;2.93;;;10.50;99.90;;;;;;5073581;28;20167;-77
2023/12/11 09:23:15;;;;;;;16.47;2.83;;;10.40;99.90;;;;;;5072243;28;20182;-78
2023/12/11 09:25:41;;;;;;;17.20;3.33;;;10.50;99.90;;;;;;5072375;28;20296;-77
2023/12/11 09:28:06;;;;;;;18.23;3.13;;;10.50;99.90;;;;;;5071791;28;20666;-77
2023/12/11 09:30:32;;;;;;;20.07;3.80;;;10.50;99.90;;;;;;5073201;28;20661;-77
2023/12/11 09:32:57;;;;;;;11.63;2.37;;;10.50;99.90;;;;;;5071996;28;20530;-77
2023/12/11 09:35:23;;;;;;;17.67;3.27;;;10.50;99.90;;;;;;5074122;28;20191;-76
2023/12/11 09:37:48;;;;;;;17.57;3.90;;;10.50;99.90;;;;;;5078598;28;20210;-77
2023/12/11 09:40:14;;;;;;;16.47;3.50;;;10.50;99.90;;;;;;5077913;28;20175;-77
2023/12/11 09:42:41;;;;;;;17.17;3.10;;;10.50;99.90;;;;;;5077288;28;20167;-77
2023/12/11 09:45:08;;;;;;;18.20;4.13;;;10.40;99.90;;;;;;5073547;28;20603;-77
2023/12/11 09:47:42;;;;;;;14.63;2.90;;;10.50;99.90;;;;;;5072844;28;20195;-76
2023/12/11 09:50:08;;;;;;;16.00;3.30;;;10.50;99.90;;;;;;5073093;28;20262;-77
2023/12/11 09:52:39;;;;;;;20.23;3.70;;;10.50;99.90;;;;;;5072769;28;20175;-77
2023/12/11 09:55:05;;;;;;;18.17;3.27;;;10.50;99.90;;;;;;5072990;28;20194;-77
2023/12/11 09:57:31;;;;;;;16.13;3.67;;;10.50;99.90;;;;;;5072947;28;20216;-78
2023/12/11 09:59:57;;;;;;;16.57;3.50;;;10.40;99.90;;;;;;5073030;28;20250;-77
2023/12/11 10:02:25;;;;;;;17.80;3.33;;;10.40;99.90;;;;;;5072958;28;20256;-77
2023/12/11 10:05:04;;;;;;;20.30;3.70;;;10.40;99.90;;;;;;5071685;28;20262;-77
2023/12/11 10:07:32;;;;;;;15.70;3.80;;;10.40;99.90;;;;;;5073003;28;20202;-77
2023/12/11 10:09:58;;;;;;;16.37;2.90;;;10.40;99.90;;;;;;5071392;28;20189;-77
2023/12/11 10:12:24;;;;;;;19.30;3.27;;;10.40;99.90;;;;;;5072907;28;20238;-76
2023/12/11 10:15:01;;;;;;;18.57;3.53;;;10.50;99.90;;;;;;5072320;28;20603;-76
2023/12/11 10:17:27;;;;;;;17.37;3.17;;;10.50;99.90;;;;;;5070859;28;20252;-77
2023/12/11 10:19:52;;;;;;;14.00;3.20;;;10.50;99.90;;;;;;5072242;28;20175;-77
2023/12/11 10:22:32;;;;;;;18.03;2.70;;;10.50;99.90;;;;;;5072036;28;20186;-76
2023/12/11 10:24:58;;;;;;;12.83;3.30;;;10.50;99.90;;;;;;5072619;28;20507;-77
2023/12/11 10:27:25;;;;;;;15.23;2.90;;;10.50;99.90;;;;;;5072141;28;20561;-77
2023/12/11 10:30:07;;;;;;;14.43;2.90;;;10.50;99.90;;;;;;5072633;28;20175;-77
2023/12/11 10:32:34;;;;;;;15.83;3.30;;;10.50;99.90;;;;;;5072525;28;20613;-76
2023/12/11 10:34:59;;;;;;;14.70;3.47;;;10.50;99.90;;;;;;5073058;28;20230;-77
2023/12/11 10:37:32;;;;;;;10.37;2.77;;;10.50;99.90;;;;;;5072529;28;20233;-77
2023/12/11 10:39:58;;;;;;;15.20;2.43;;;10.50;99.90;;;;;;5071946;28;20206;-77
2023/12/11 10:42:25;;;;;;;15.00;2.90;;;10.40;99.90;;;;;;5076214;28;20167;-77
2023/12/11 10:44:51;;;;;;;15.80;3.00;;;10.40;99.90;;;;;;5075964;28;20252;-77
2023/12/11 10:47:18;;;;;;;14.50;3.20;;;10.40;99.90;;;;;;5074560;28;20198;-77
2023/12/11 10:49:44;;;;;;;13.60;3.00;;;10.30;99.90;;;;;;5076225;28;20175;-77
2023/12/11 10:52:10;;;;;;;13.07;2.53;;;10.30;99.90;;;;;;5074964;28;20175;-77
2023/12/11 10:54:41;;;;;;;11.27;2.73;;;10.30;99.90;;;;;;5075928;28;20682;-77
2023/12/11 10:57:12;;;;;;;13.60;2.47;;;10.30;99.90;;;;;;5091526;28;20754;-77
2023/12/11 10:59:38;;;;;;;8.37;3.20;;;10.40;99.90;;;;;;5076132;28;20167;-76
2023/12/11 11:02:05;;;;;;;9.37;2.47;;;10.40;99.90;;;;;;5075898;28;20171;-78
2023/12/11 11:04:34;;;;;;;12.37;2.73;;;10.40;99.90;;;;;;5074554;28;20179;-77
2023/12/11 11:07:10;;;;;;;12.27;2.53;;;10.40;99.90;;;;;;5074238;28;20225;-77
2023/12/11 11:09:53;;;;;;;13.13;2.40;;;10.40;99.90;;;;;;5077123;28;20209;-78
2023/12/11 11:12:31;;;;;;;15.27;3.40;;;10.40;99.90;;;;;;5075896;28;20672;-76
2023/12/11 11:14:56;;;;;;;7.60;2.13;;;10.40;99.90;;;;;;5077275;28;20191;-78
2023/12/11 11:17:22;;;;;;;12.13;2.97;;;10.40;99.90;;;;;;5078057;28;20199;-77
2023/12/11 11:20:10;;;;;;;7.83;2.07;;;10.40;99.90;;;;;;5077625;28;20531;-78
2023/12/11 11:22:36;;;;;;;13.50;2.63;;;10.40;99.90;;;;;;5077060;28;20557;-78
2023/12/11 11:25:33;;;;;;;11.73;2.53;;;10.40;99.90;;;;;;5076960;28;20250;-78
2023/12/11 11:28:00;;;;;;;12.80;2.20;;;10.50;99.90;;;;;;5077833;28;20528;-78
2023/12/11 11:30:44;;;;;;;13.07;2.93;;;10.50;99.90;;;;;;5077267;28;20202;-78
2023/12/11 11:33:10;;;;;;;11.50;2.53;;;10.50;99.90;;;;;;5076768;28;20217;-78
2023/12/11 11:36:02;;;;;;;11.00;2.93;;;10.50;99.90;;;;;;5078596;28;20293;-78
2023/12/11 11:39:04;;;;;;;15.77;2.30;;;10.50;99.90;;;;;;5074992;28;20179;-78
2023/12/11 11:41:30;;;;;;;8.67;2.30;;;10.50;99.90;;;;;;4997039;28;20189;-78
2023/12/11 11:44:01;;;;;;;11.63;2.30;;;10.50;99.90;;;;;;5073732;28;20311;-78
2023/12/11 11:46:48;;;;;;;8.33;2.00;;;10.50;99.90;;;;;;5077919;28;20680;-79
2023/12/11 11:49:28;;;;;;;12.73;2.53;;;10.40;99.90;;;;;;5078510;28;20627;-78
2023/12/11 11:51:54;;;;;;;12.30;2.37;;;10.40;99.90;;;;;;5076295;28;20219;-78
2023/12/11 11:54:24;;;;;;;11.33;2.70;;;10.30;99.90;;;;;;5076766;28;20638;-78
2023/12/11 11:56:50;;;;;;;11.80;2.90;;;10.30;99.90;;;;;;5079317;28;20183;-78
2023/12/11 11:59:17;;;;;;;7.33;2.40;;;10.20;99.90;;;;;;5079750;28;20270;-78
2023/12/11 12:01:56;;;;;;;5.97;1.87;;;10.00;99.90;;;;;;5075244;28;20171;-77
2023/12/11 12:04:25;;;;;;;7.07;1.83;;;9.80;99.90;;;;;;5078530;28;20155;-78
2023/12/11 12:06:51;;;;;;;6.87;2.00;;;9.60;99.90;;;;;;5079348;28;20186;-78
2023/12/11 12:09:18;;;;;;;9.53;2.60;;;9.40;99.90;;;;;;5079897;28;20179;-78
2023/12/11 12:11:43;;;;;;;8.00;2.23;;;9.40;99.90;;;;;;5081192;28;20167;-79
2023/12/11 12:14:15;;;;;;;7.73;1.80;;;9.30;99.90;;;;;;5084608;28;20209;-78
2023/12/11 12:16:41;;;;;;;6.77;1.77;;;9.20;99.90;;;;;;5079410;28;20194;-77
2023/12/11 12:19:06;;;;;;;2.80;1.13;;;9.20;99.90;;;;;;5076921;28;20178;-78
2023/12/11 12:21:51;;;;;;;3.87;1.40;;;9.10;99.90;;;;;;5077801;28;20178;-78
2023/12/11 12:24:16;;;;;;;4.67;1.20;;;9.00;99.90;;;;;;5076730;28;20508;-78
2023/12/11 12:26:42;;;;;;;2.93;1.00;;;9.00;99.90;;;;;;5077728;28;20282;-78
2023/12/11 12:29:09;;;;;;;5.57;1.67;;;9.00;99.90;;;;;;5077898;28;20226;-78
2023/12/11 12:31:37;;;;;;;4.03;1.20;;;8.90;99.90;;;;;;5078376;28;20217;-78
2023/12/11 12:34:04;;;;;;;4.83;1.60;;;8.90;99.90;;;;;;5077951;28;20199;-79
2023/12/11 12:36:30;;;;;;;4.57;1.97;;;8.90;99.90;;;;;;5077963;28;20187;-77
2023/12/11 12:38:56;;;;;;;6.57;2.77;;;8.90;99.90;;;;;;5097581;28;20408;-78
2023/12/11 12:41:21;;;;;;;9.83;4.53;;;8.90;99.90;;;;;;5099635;28;20235;-78
2023/12/11 12:43:47;;;;;;;7.20;3.00;;;8.90;99.90;;;;;;5100285;28;20178;-78